Time;durP1;ratioP1;P1;durP2;ratioP2;P2;SDS_P1;SDS_P2;PMS_P1;PMS_P2;Temp;Humidity;BMP_temperature;BMP_pressure;BME280_temperature;BME280_humidity;BME280_pressure;Samples;Min_cycle;Max_cycle;Signal;HPM_P1;HPM_P2
2022/03/23 00:01:27;;;;;;;44.33;23.05;;;;;;;7.61;89.48;103056.03;5048762;28;20035;-67
2022/03/23 00:03:52;;;;;;;47.47;23.52;;;;;;;7.62;89.42;103050.78;5058931;28;20040;-68
2022/03/23 00:06:17;;;;;;;42.92;23.15;;;;;;;7.61;88.74;103049.03;5081348;28;20407;-68
2022/03/23 00:08:44;;;;;;;45.00;23.67;;;;;;;7.55;88.83;103055.13;5079698;28;20028;-68
2022/03/23 00:11:10;;;;;;;48.25;23.35;;;;;;;7.50;89.42;103054.25;5079076;28;20034;-67
2022/03/23 00:13:36;;;;;;;49.28;24.73;;;;;;;7.49;89.45;103057.78;5079292;28;20040;-67
2022/03/23 00:16:03;;;;;;;47.05;23.98;;;;;;;7.45;89.33;103048.06;5086770;28;20032;-67
2022/03/23 00:18:29;;;;;;;42.92;23.13;;;;;;;7.41;89.72;103061.25;5093946;28;20032;-67
2022/03/23 00:20:54;;;;;;;44.45;24.27;;;;;;;7.39;89.84;103053.31;5084645;28;20039;-67
2022/03/23 00:23:19;;;;;;;42.30;22.35;;;;;;;7.33;90.01;103056.81;5089828;28;20032;-68
2022/03/23 00:25:45;;;;;;;47.75;23.90;;;;;;;7.30;90.26;103053.28;5061524;28;20142;-67
2022/03/23 00:28:10;;;;;;;43.72;24.17;;;;;;;7.31;90.15;103049.78;5057753;28;20454;-67
2022/03/23 00:30:35;;;;;;;48.45;23.90;;;;;;;7.27;90.24;103058.56;5079388;28;20118;-67
2022/03/23 00:33:05;;;;;;;45.05;22.35;;;;;;;7.27;89.69;103046.25;5061146;28;20031;-68
2022/03/23 00:35:30;;;;;;;46.53;24.63;;;;;;;7.24;89.47;103050.63;5079175;28;20501;-68
2022/03/23 00:37:58;;;;;;;43.97;22.92;;;;;;;7.21;89.88;103051.47;5078090;28;20039;-67
2022/03/23 00:40:25;;;;;;;46.53;24.33;;;;;;;7.17;89.86;103053.25;5078394;28;20036;-67
2022/03/23 00:42:50;;;;;;;47.20;23.92;;;;;;;7.16;90.43;103054.13;5078224;28;20075;-67
2022/03/23 00:45:17;;;;;;;42.88;23.15;;;;;;;7.18;89.85;103054.97;5079057;28;20108;-67
2022/03/23 00:47:46;;;;;;;41.95;22.92;;;;;;;7.14;89.50;103050.56;5074497;28;20025;-67
2022/03/23 00:50:12;;;;;;;45.28;23.25;;;;;;;7.10;89.93;103043.53;5079025;28;20426;-68
2022/03/23 00:52:37;;;;;;;45.30;23.38;;;;;;;7.09;89.60;103059.34;5090863;28;20474;-70
2022/03/23 00:55:04;;;;;;;45.35;23.55;;;;;;;7.05;90.04;103046.13;5082976;28;20032;-67
2022/03/23 00:57:30;;;;;;;43.72;23.05;;;;;;;7.05;89.97;103047.91;5079416;28;20050;-69
2022/03/23 00:59:55;;;;;;;44.40;22.75;;;;;;;7.01;89.72;103044.38;5083414;28;20051;-67
2022/03/23 01:02:21;;;;;;;45.30;24.08;;;;;;;6.97;90.30;103047.84;5059765;28;20070;-67
2022/03/23 01:04:46;;;;;;;47.17;23.10;;;;;;;6.98;90.12;103048.72;5078504;28;20027;-67
2022/03/23 01:07:11;;;;;;;47.42;23.25;;;;;;;6.97;90.47;103050.50;5059279;28;20100;-68
2022/03/23 01:09:37;;;;;;;44.63;23.95;;;;;;;6.98;90.07;103039.09;5078953;28;20032;-67
2022/03/23 01:12:03;;;;;;;46.88;23.85;;;;;;;6.98;90.02;103046.09;5078762;28;20028;-67
2022/03/23 01:14:28;;;;;;;45.90;23.85;;;;;;;6.94;90.38;103044.31;5060504;28;20086;-67
2022/03/23 01:16:54;;;;;;;45.22;23.30;;;;;;;6.89;90.48;103046.91;5078434;28;20030;-67
2022/03/23 01:19:22;;;;;;;42.65;23.67;;;;;;;6.83;90.88;103037.25;5078344;28;20034;-67
2022/03/23 01:21:48;;;;;;;44.63;23.35;;;;;;;6.81;90.60;103046.88;5060224;28;20435;-67
2022/03/23 01:24:13;;;;;;;45.58;22.95;;;;;;;6.78;90.92;103038.97;5078029;28;20126;-68
2022/03/23 01:26:38;;;;;;;41.35;23.40;;;;;;;6.80;91.12;103037.19;5077667;28;20089;-68
2022/03/23 01:29:04;;;;;;;41.88;23.23;;;;;;;6.75;90.83;103038.06;5059822;28;20031;-68
2022/03/23 01:31:30;;;;;;;42.03;23.40;;;;;;;6.69;91.27;103029.25;5078165;28;20478;-67
2022/03/23 01:33:59;;;;;;;46.55;23.90;;;;;;;6.69;91.13;103034.50;5078045;28;20117;-67
2022/03/23 01:36:26;;;;;;;46.72;24.30;;;;;;;6.70;91.08;103028.38;5077134;28;20036;-68
2022/03/23 01:38:52;;;;;;;47.63;24.25;;;;;;;6.70;90.63;103027.47;5077159;28;20461;-68
2022/03/23 01:41:17;;;;;;;44.63;22.83;;;;;;;6.66;90.73;103031.88;5077816;28;20985;-68
2022/03/23 01:43:42;;;;;;;45.03;23.65;;;;;;;6.61;91.20;103030.97;5077525;28;20143;-68
2022/03/23 01:46:08;;;;;;;45.50;24.23;;;;;;;6.55;91.33;103028.28;5077720;28;20120;-68
2022/03/23 01:48:33;;;;;;;43.15;23.65;;;;;;;6.51;91.97;103031.72;5059326;28;20410;-68
2022/03/23 01:50:59;;;;;;;44.45;23.70;;;;;;;6.47;92.14;103029.94;5077430;28;20032;-68
2022/03/23 01:53:24;;;;;;;44.35;22.98;;;;;;;6.43;91.34;103033.44;5079779;28;20042;-68
2022/03/23 01:55:50;;;;;;;44.08;22.95;;;;;;;6.42;92.33;103029.94;5085994;28;20059;-68
2022/03/23 01:58:15;;;;;;;45.10;23.98;;;;;;;6.41;92.42;103025.53;5058196;28;20047;-67
2022/03/23 02:00:41;;;;;;;41.65;24.08;;;;;;;6.36;91.81;103028.13;5062515;28;20028;-67
2022/03/23 02:03:06;;;;;;;47.58;23.70;;;;;;;6.31;92.30;103034.22;5059747;28;20207;-69
2022/03/23 02:05:32;;;;;;;43.35;23.35;;;;;;;6.27;92.39;103014.91;5077506;28;20040;-68
2022/03/23 02:07:57;;;;;;;43.10;23.67;;;;;;;6.25;92.34;103026.28;5058939;28;20028;-67
2022/03/23 02:10:23;;;;;;;42.22;22.30;;;;;;;6.25;92.74;103021.03;5077402;28;20032;-68
2022/03/23 02:12:48;;;;;;;43.38;23.70;;;;;;;6.23;92.36;103023.66;5077312;28;20059;-67
2022/03/23 02:15:21;;;;;;;45.63;23.60;;;;;;;6.23;93.59;103015.75;5060253;28;20391;-67
2022/03/23 02:17:50;;;;;;;43.63;23.55;;;;;;;6.22;93.18;103013.97;5077297;28;20071;-67
2022/03/23 02:20:15;;;;;;;44.58;23.00;;;;;;;6.19;92.76;103013.94;5075485;28;20028;-68
2022/03/23 02:22:41;;;;;;;43.85;23.67;;;;;;;6.14;92.63;103019.19;5058907;28;20047;-67
2022/03/23 02:25:07;;;;;;;46.50;23.65;;;;;;;6.09;93.57;103020.88;5077153;28;20027;-67
2022/03/23 02:27:36;;;;;;;42.78;23.85;;;;;;;6.04;93.87;103020.84;5077070;28;20526;-67
2022/03/23 02:30:05;;;;;;;45.85;24.33;;;;;;;6.01;94.35;103012.94;5077558;28;20040;-68
2022/03/23 02:32:30;;;;;;;44.03;24.15;;;;;;;6.02;93.88;103013.78;5062863;28;20025;-68
2022/03/23 02:34:55;;;;;;;47.35;24.63;;;;;;;6.03;93.72;103018.19;5076947;28;20367;-68
2022/03/23 02:37:21;;;;;;;50.47;25.05;;;;;;;6.05;94.10;103012.09;5080243;28;20467;-67
2022/03/23 02:39:46;;;;;;;50.70;24.65;;;;;;;6.13;94.24;103016.53;5077364;28;20043;-68
2022/03/23 02:42:11;;;;;;;45.72;23.92;;;;;;;6.15;93.30;103017.41;5047808;28;20028;-67
2022/03/23 02:44:37;;;;;;;40.63;22.05;;;;;;;6.07;92.65;103018.25;5085587;28;20376;-68
2022/03/23 02:47:04;;;;;;;43.63;23.80;;;;;;;6.00;92.99;103011.16;5083544;28;20032;-68
2022/03/23 02:49:29;;;;;;;46.40;23.90;;;;;;;5.95;93.76;103019.84;5075654;28;20039;-68
2022/03/23 02:51:54;;;;;;;43.25;23.42;;;;;;;5.90;94.24;103015.41;5076440;28;20036;-68
2022/03/23 03:03:30;;;;;;;45.10;25.02;;;;;;;5.83;94.49;103008.34;5082923;28;20049;-68
2022/03/23 03:05:56;;;;;;;48.90;24.65;;;;;;;5.85;94.31;103010.97;5082551;28;20032;-68
2022/03/23 03:11:05;;;;;;;47.40;24.02;;;;;;;5.79;94.57;103019.66;5082585;28;20525;-68
2022/03/23 03:13:30;;;;;;;48.35;24.95;;;;;;;5.77;95.08;103021.41;5082387;28;20028;-67
2022/03/23 03:16:02;;;;;;;47.40;24.77;;;;;;;5.77;95.76;103029.31;5082704;28;20103;-68
2022/03/23 03:18:31;;;;;;;46.05;25.50;;;;;;;5.75;94.85;103017.88;5056682;28;20039;-68
2022/03/23 03:20:57;;;;;;;47.80;24.23;;;;;;;5.74;95.01;103027.53;5081806;28;20028;-67
2022/03/23 03:23:22;;;;;;;46.63;24.17;;;;;;;5.75;93.87;103025.78;5082561;28;20479;-68
2022/03/23 03:25:47;;;;;;;45.95;23.48;;;;;;;5.74;93.52;103027.53;5066697;28;20047;-68
2022/03/23 03:28:13;;;;;;;45.20;24.35;;;;;;;5.74;93.03;103034.50;5087767;28;20040;-70
2022/03/23 03:30:38;;;;;;;47.05;24.23;;;;;;;5.72;93.32;103033.63;5082432;28;20050;-69
2022/03/23 03:33:04;;;;;;;46.75;24.23;;;;;;;5.71;92.69;103018.72;5080904;28;20067;-69
2022/03/23 03:35:29;;;;;;;43.67;23.63;;;;;;;5.67;92.95;103025.69;5077345;28;20111;-69
2022/03/23 03:37:54;;;;;;;45.10;23.33;;;;;;;5.65;92.94;103023.91;5087087;28;20040;-67
2022/03/23 03:40:20;;;;;;;43.90;23.55;;;;;;;5.58;92.86;103031.72;5068331;28;20028;-69
2022/03/23 03:42:45;;;;;;;43.22;24.17;;;;;;;5.45;94.01;103031.56;5082069;28;20808;-68
2022/03/23 03:45:11;;;;;;;47.33;24.15;;;;;;;5.35;95.93;103030.59;5091086;28;20040;-69
2022/03/23 03:47:36;;;;;;;41.67;23.50;;;;;;;5.32;95.51;103035.78;5084514;28;20051;-67
2022/03/23 03:50:03;;;;;;;48.78;24.35;;;;;;;5.28;96.18;103031.38;5084172;28;20036;-68
2022/03/23 03:52:28;;;;;;;44.60;24.80;;;;;;;5.27;96.16;103041.00;5061463;28;20039;-70
2022/03/23 03:54:54;;;;;;;52.90;25.00;;;;;;;5.23;95.93;103037.44;5090987;28;20114;-70
2022/03/23 03:57:19;;;;;;;45.55;24.20;;;;;;;5.18;95.65;103035.59;5088259;28;20063;-70
2022/03/23 03:59:44;;;;;;;48.38;23.27;;;;;;;5.19;95.75;103038.28;5088660;28;20043;-69
2022/03/23 04:02:10;;;;;;;46.80;24.08;;;;;;;5.20;95.72;103041.78;5084654;28;20035;-69
2022/03/23 04:04:35;;;;;;;40.10;22.77;;;;;;;5.18;95.78;103035.59;5067624;28;20028;-69
2022/03/23 04:07:02;;;;;;;45.38;24.25;;;;;;;5.16;95.47;103038.22;5063547;28;20056;-70
2022/03/23 04:09:27;;;;;;;42.75;23.45;;;;;;;5.14;95.99;103036.44;5042149;28;20127;-70
2022/03/23 04:11:52;;;;;;;45.40;24.35;;;;;;;5.13;96.48;103043.44;5083884;28;20102;-70
2022/03/23 04:14:18;;;;;;;45.90;25.17;;;;;;;5.11;96.11;103045.16;5074614;28;20051;-70
2022/03/23 04:16:43;;;;;;;43.22;23.48;;;;;;;5.09;96.35;103052.16;5093967;28;20141;-68
2022/03/23 04:19:09;;;;;;;45.13;24.20;;;;;;;5.08;96.84;103043.38;5085494;28;20032;-69
2022/03/23 04:21:35;;;;;;;44.63;23.70;;;;;;;5.08;96.49;103045.13;5083694;28;20032;-70
2022/03/23 04:24:00;;;;;;;54.90;24.77;;;;;;;5.05;96.36;103038.09;5077184;28;20039;-69
2022/03/23 04:26:25;;;;;;;43.63;24.10;;;;;;;5.06;96.53;103057.34;5085501;28;20085;-70
2022/03/23 04:28:51;;;;;;;49.30;24.88;;;;;;;5.01;96.68;103049.41;5085193;28;20032;-70
2022/03/23 04:31:17;;;;;;;47.60;24.30;;;;;;;5.01;96.65;103045.91;5063287;28;20486;-68
2022/03/23 04:33:42;;;;;;;43.20;23.67;;;;;;;4.99;96.56;103048.50;5047697;28;20071;-67
2022/03/23 04:36:09;;;;;;;43.38;23.42;;;;;;;4.99;97.06;103039.75;5079209;28;20039;-69
2022/03/23 04:38:35;;;;;;;44.65;24.77;;;;;;;5.00;96.24;103052.91;5061538;28;20029;-69
2022/03/23 04:41:00;;;;;;;44.90;23.55;;;;;;;4.97;96.08;103049.34;5055271;28;20043;-68
2022/03/23 04:43:25;;;;;;;42.08;22.77;;;;;;;4.93;95.86;103049.28;5083188;28;20644;-70
2022/03/23 04:45:51;;;;;;;46.03;23.65;;;;;;;4.91;95.94;103048.41;5077005;28;20040;-68
2022/03/23 04:48:17;;;;;;;43.80;23.95;;;;;;;4.90;96.33;103054.50;5083219;28;20487;-68
2022/03/23 04:50:42;;;;;;;44.38;23.05;;;;;;;4.92;95.94;103055.41;5094243;28;20028;-70
2022/03/23 04:53:07;;;;;;;41.10;22.88;;;;;;;4.90;95.23;103054.50;5081959;28;20024;-68
2022/03/23 04:55:34;;;;;;;48.03;23.33;;;;;;;4.84;95.34;103057.03;5071805;28;20071;-68
2022/03/23 04:58:02;;;;;;;42.95;23.20;;;;;;;4.80;95.68;103060.47;5091833;28;20082;-68
2022/03/23 05:00:27;;;;;;;39.90;22.58;;;;;;;4.77;96.63;103057.81;5056519;28;20099;-69
2022/03/23 05:02:53;;;;;;;44.33;23.58;;;;;;;4.76;96.28;103053.44;5074724;28;20024;-68
2022/03/23 05:05:18;;;;;;;43.22;23.23;;;;;;;4.75;96.39;103056.91;5085020;28;20028;-68
2022/03/23 05:07:45;;;;;;;39.65;22.27;;;;;;;4.74;96.69;103066.53;5077937;28;20483;-68
2022/03/23 05:10:12;;;;;;;41.78;22.35;;;;;;;4.74;96.60;103063.00;5083285;28;20023;-68
2022/03/23 05:12:39;;;;;;;42.65;22.42;;;;;;;4.71;96.56;103062.97;5057811;28;20107;-68
2022/03/23 05:15:06;;;;;;;43.92;23.30;;;;;;;4.69;96.93;103073.44;5084355;28;20030;-69
2022/03/23 05:17:35;;;;;;;42.08;23.05;;;;;;;4.66;96.44;103073.38;5083956;28;20038;-68
2022/03/23 05:20:01;;;;;;;43.65;23.52;;;;;;;4.67;96.43;103075.16;5084751;28;20030;-69
2022/03/23 05:22:27;;;;;;;42.17;22.52;;;;;;;4.66;96.76;103077.75;5077526;28;20024;-68
2022/03/23 05:24:53;;;;;;;39.72;23.05;;;;;;;4.67;96.45;103063.78;5087084;28;20151;-68
2022/03/23 05:27:19;;;;;;;40.28;23.00;;;;;;;4.68;96.66;103076.03;5085572;28;20024;-67
2022/03/23 05:29:44;;;;;;;40.78;22.50;;;;;;;4.66;96.76;103077.75;5079968;28;20025;-68
2022/03/23 05:32:16;;;;;;;41.65;23.17;;;;;;;4.63;96.07;103065.47;5060627;28;20043;-67
2022/03/23 05:34:44;;;;;;;42.85;22.90;;;;;;;4.59;96.41;103079.38;5086420;28;20073;-68
2022/03/23 05:37:11;;;;;;;42.75;23.05;;;;;;;4.58;95.95;103073.25;5085482;28;20064;-69
2022/03/23 05:39:37;;;;;;;44.40;23.13;;;;;;;4.56;95.82;103068.84;5087283;28;20035;-69
2022/03/23 05:42:03;;;;;;;37.88;21.23;;;;;;;4.52;95.81;103072.28;5083993;28;20054;-68
2022/03/23 05:44:29;;;;;;;36.00;21.30;;;;;;;4.53;96.50;103067.06;5086592;28;20051;-68
2022/03/23 05:46:54;;;;;;;40.65;21.48;;;;;;;4.51;95.40;103079.25;5067628;28;20028;-68
2022/03/23 05:49:20;;;;;;;47.92;23.40;;;;;;;4.48;95.34;103068.72;5065798;28;20051;-68
2022/03/23 05:51:45;;;;;;;42.38;21.83;;;;;;;4.46;95.31;103073.06;5092290;28;20028;-68
2022/03/23 05:54:10;;;;;;;40.80;22.35;;;;;;;4.44;95.87;103074.78;5058043;28;20067;-69
2022/03/23 05:56:36;;;;;;;43.22;22.13;;;;;;;4.46;96.67;103077.44;5077576;28;20051;-68
2022/03/23 05:59:01;;;;;;;40.97;22.70;;;;;;;4.48;96.74;103089.72;5069868;28;20115;-68
2022/03/23 06:01:26;;;;;;;42.05;21.88;;;;;;;4.48;97.86;103086.22;5061796;28;20075;-69
2022/03/23 06:03:52;;;;;;;42.38;22.80;;;;;;;4.51;97.67;103089.75;5080344;28;20075;-70
2022/03/23 06:06:17;;;;;;;51.97;23.42;;;;;;;4.52;98.29;103086.28;5083400;28;20135;-69
2022/03/23 06:08:43;;;;;;;45.42;22.85;;;;;;;4.57;98.54;103089.84;5088191;28;20028;-69
2022/03/23 06:11:08;;;;;;;43.42;23.30;;;;;;;4.62;98.14;103087.31;5076766;28;20036;-69
2022/03/23 06:13:34;;;;;;;45.83;23.05;;;;;;;4.66;97.88;103085.63;5077494;28;20033;-69
2022/03/23 06:15:59;;;;;;;45.03;23.15;;;;;;;4.68;98.08;103086.53;5082850;28;20493;-69
2022/03/23 06:18:25;;;;;;;44.80;23.48;;;;;;;4.72;98.58;103088.38;5064941;28;20491;-68
2022/03/23 06:20:51;;;;;;;44.67;23.55;;;;;;;4.81;98.29;103083.25;5075909;28;20032;-69
2022/03/23 06:23:17;;;;;;;42.00;22.65;;;;;;;4.88;98.13;103097.34;5073714;28;20032;-68
2022/03/23 06:25:42;;;;;;;41.88;23.17;;;;;;;4.96;98.46;103092.22;5082046;28;20028;-70
2022/03/23 06:28:07;;;;;;;42.70;23.52;;;;;;;5.00;97.90;103094.91;5089020;28;20036;-69
2022/03/23 06:30:34;;;;;;;46.35;22.80;;;;;;;5.09;97.66;103094.16;5084034;28;20039;-69
2022/03/23 06:33:00;;;;;;;41.30;22.27;;;;;;;5.17;97.85;103096.91;5055952;28;20486;-69
2022/03/23 06:35:26;;;;;;;41.78;23.23;;;;;;;5.23;97.67;103089.09;5061548;28;20035;-69
2022/03/23 06:37:52;;;;;;;48.10;22.60;;;;;;;5.29;97.19;103093.56;5072036;28;20032;-69
2022/03/23 06:40:18;;;;;;;41.17;21.70;;;;;;;5.37;98.01;103091.91;5073855;28;20380;-68
2022/03/23 06:42:44;;;;;;;39.05;22.35;;;;;;;5.47;96.99;103092.91;5065231;28;20524;-68
2022/03/23 06:45:09;;;;;;;42.50;22.88;;;;;;;5.52;96.32;103101.75;5077612;28;20036;-68
2022/03/23 06:47:35;;;;;;;38.80;22.23;;;;;;;5.61;96.07;103098.34;5086758;28;20016;-69
2022/03/23 06:50:00;;;;;;;44.25;21.83;;;;;;;5.71;96.05;103093.19;5068739;28;20390;-69
2022/03/23 06:52:25;;;;;;;49.10;22.13;;;;;;;5.83;95.10;103099.47;5068653;28;20041;-69
2022/03/23 06:54:51;;;;;;;42.30;21.73;;;;;;;5.94;94.73;103100.47;5074209;28;20631;-69
2022/03/23 06:57:16;;;;;;;37.92;21.55;;;;;;;6.05;94.14;103100.66;5078794;28;20149;-68
2022/03/23 06:59:41;;;;;;;40.97;21.77;;;;;;;6.20;93.81;103105.16;5076292;28;20028;-69
2022/03/23 07:02:08;;;;;;;38.20;20.42;;;;;;;6.31;93.51;103095.63;5065251;28;20027;-68
2022/03/23 07:04:34;;;;;;;42.50;21.52;;;;;;;6.45;93.21;103094.88;5067038;28;20039;-69
2022/03/23 07:06:59;;;;;;;42.10;22.15;;;;;;;6.57;92.08;103102.88;5073158;28;20085;-69
2022/03/23 07:09:38;;;;;;;42.47;22.45;;;;;;;6.72;92.22;103110.00;5066777;28;20032;-69
2022/03/23 07:12:09;;;;;;;40.65;22.05;;;;;;;6.86;91.54;103100.44;5054851;28;20033;-70
2022/03/23 07:14:36;;;;;;;40.55;20.90;;;;;;;7.04;90.54;103097.06;5070397;28;20028;-69
2022/03/23 07:17:03;;;;;;;40.88;20.05;;;;;;;7.20;88.92;103103.31;5072451;28;20032;-69
2022/03/23 07:19:29;;;;;;;36.33;20.65;;;;;;;7.33;88.73;103108.66;5073220;28;20066;-69
2022/03/23 07:21:54;;;;;;;37.67;21.05;;;;;;;7.44;88.30;103109.56;5073774;28;20032;-69
2022/03/23 07:24:21;;;;;;;33.80;18.98;;;;;;;7.60;88.09;103121.09;5069923;28;20036;-69
2022/03/23 07:26:46;;;;;;;37.58;20.40;;;;;;;7.80;85.81;103121.16;5087547;28;20040;-69
2022/03/23 07:29:13;;;;;;;35.30;19.60;;;;;;;7.93;84.74;103126.47;5089805;28;20434;-69
2022/03/23 07:31:39;;;;;;;34.40;19.45;;;;;;;8.03;84.64;103120.34;5091712;28;20441;-69
2022/03/23 07:34:05;;;;;;;39.92;19.42;;;;;;;8.17;83.53;103130.94;5090864;28;20491;-69
2022/03/23 07:36:30;;;;;;;34.88;19.25;;;;;;;8.41;79.61;103127.44;5073328;28;20080;-70
2022/03/23 07:38:56;;;;;;;35.80;18.55;;;;;;;8.61;77.98;103129.28;5084834;28;20048;-68
2022/03/23 07:41:21;;;;;;;37.75;19.10;;;;;;;8.72;77.97;103129.25;5070133;28;20399;-67
2022/03/23 07:43:47;;;;;;;39.83;20.10;;;;;;;8.84;76.90;103138.06;5076724;28;20103;-70
2022/03/23 07:46:12;;;;;;;34.78;19.52;;;;;;;8.90;77.05;103137.19;5072878;28;20048;-69
2022/03/23 07:48:38;;;;;;;33.65;19.50;;;;;;;9.01;76.64;103139.81;5094889;28;20031;-68
2022/03/23 07:51:04;;;;;;;37.78;19.60;;;;;;;9.09;74.90;103138.06;5093867;28;20386;-67
2022/03/23 07:53:29;;;;;;;42.40;20.58;;;;;;;9.19;74.32;103146.81;5047209;28;20043;-70
2022/03/23 07:55:54;;;;;;;39.58;18.98;;;;;;;9.29;73.76;103143.28;5074786;28;20032;-70
2022/03/23 07:58:21;;;;;;;40.53;19.73;;;;;;;9.37;74.47;103148.53;5074207;28;20078;-70
2022/03/23 08:00:48;;;;;;;37.70;20.38;;;;;;;9.51;75.91;103137.94;5085053;28;20031;-68
2022/03/23 08:03:13;;;;;;;34.00;19.25;;;;;;;9.57;73.91;103152.91;5050971;28;20040;-67
2022/03/23 08:05:42;;;;;;;35.80;19.05;;;;;;;9.71;70.99;103152.88;5086417;28;20159;-68
2022/03/23 08:08:09;;;;;;;33.50;18.45;;;;;;;9.80;70.96;103150.19;5091506;28;20030;-68
2022/03/23 08:10:35;;;;;;;35.05;19.30;;;;;;;9.84;71.09;103155.44;5091758;28;20115;-70
2022/03/23 08:13:02;;;;;;;37.25;19.75;;;;;;;9.90;71.98;103153.63;5090803;28;20035;-68
2022/03/23 08:15:29;;;;;;;34.40;19.00;;;;;;;9.93;70.65;103157.16;5089928;28;20120;-68
2022/03/23 08:17:55;;;;;;;37.33;19.15;;;;;;;10.03;70.80;103157.13;5091104;28;20028;-68
2022/03/23 08:20:33;;;;;;;36.20;20.00;;;;;;;10.11;70.49;103150.88;5069315;28;20115;-69
2022/03/23 08:23:00;;;;;;;35.15;19.92;;;;;;;10.20;69.59;103143.78;5087748;28;20097;-68
2022/03/23 08:25:26;;;;;;;33.72;19.35;;;;;;;10.31;69.47;103156.06;5085711;28;20480;-69
2022/03/23 08:27:52;;;;;;;39.05;19.50;;;;;;;10.41;68.71;103150.72;5088060;28;20058;-69
2022/03/23 08:30:17;;;;;;;33.95;20.33;;;;;;;10.53;67.67;103152.44;5086887;28;20016;-69
2022/03/23 08:32:42;;;;;;;35.88;19.55;;;;;;;10.58;67.41;103140.03;5093843;28;20040;-68
2022/03/23 08:35:08;;;;;;;33.28;19.73;;;;;;;10.57;66.24;103136.47;5079521;28;20040;-68
2022/03/23 08:37:34;;;;;;;37.15;20.48;;;;;;;10.65;67.15;103141.72;5084086;28;20029;-67
2022/03/23 08:39:59;;;;;;;35.35;19.77;;;;;;;10.84;66.78;103146.88;5093032;28;20028;-68
2022/03/23 08:42:25;;;;;;;32.33;19.50;;;;;;;10.95;65.34;103135.25;5070432;28;20032;-68
2022/03/23 08:44:50;;;;;;;38.53;20.55;;;;;;;11.12;63.61;103148.34;5076568;28;20056;-67
2022/03/23 08:47:17;;;;;;;34.30;19.75;;;;;;;11.17;64.23;103143.00;5066485;28;20028;-68
2022/03/23 08:49:42;;;;;;;33.60;19.73;;;;;;;11.30;61.91;103146.41;5052189;28;20382;-68
2022/03/23 08:52:08;;;;;;;31.63;18.77;;;;;;;11.39;62.84;103137.47;5071622;28;20024;-70
2022/03/23 08:54:34;;;;;;;34.95;19.85;;;;;;;11.50;62.56;103138.22;5057676;28;20082;-68
2022/03/23 08:56:59;;;;;;;34.63;19.67;;;;;;;11.55;60.17;103140.84;5082602;28;20028;-69
2022/03/23 08:59:25;;;;;;;36.75;20.17;;;;;;;11.67;60.16;103138.00;5072345;28;20036;-68
2022/03/23 09:01:50;;;;;;;33.92;19.55;;;;;;;11.84;61.08;103142.22;5086873;28;20032;-68
2022/03/23 09:04:15;;;;;;;37.35;19.52;;;;;;;11.91;59.55;103146.56;5070113;28;20085;-68
2022/03/23 09:06:41;;;;;;;31.10;18.92;;;;;;;12.11;57.55;103148.97;5062728;28;20052;-68
2022/03/23 09:09:06;;;;;;;31.85;19.42;;;;;;;12.27;57.42;103152.28;5072670;28;20028;-68
2022/03/23 09:11:32;;;;;;;34.30;18.75;;;;;;;12.53;56.06;103141.28;5093496;28;20183;-69
2022/03/23 09:13:58;;;;;;;27.90;17.95;;;;;;;12.93;55.46;103155.66;5091109;28;20036;-68
2022/03/23 09:16:23;;;;;;;31.90;18.83;;;;;;;13.32;54.72;103149.63;5056729;28;20032;-69
2022/03/23 09:18:49;;;;;;;36.90;20.08;;;;;;;14.47;51.28;103162.25;5070356;28;20055;-68
2022/03/23 09:21:15;;;;;;;33.50;19.20;;;;;;;15.86;45.21;103153.22;5084147;28;20032;-68
2022/03/23 09:23:41;;;;;;;32.22;19.65;;;;;;;16.93;41.69;103144.47;5075107;28;20047;-69
2022/03/23 09:26:11;;;;;;;32.35;20.73;;;;;;;17.83;39.95;103147.41;5090293;28;20055;-68
2022/03/23 09:28:37;;;;;;;33.33;20.70;;;;;;;18.97;35.39;103149.09;5089621;28;20043;-68
2022/03/23 09:31:03;;;;;;;31.67;19.70;;;;;;;19.38;33.60;103146.38;5091488;28;20047;-69
2022/03/23 09:33:29;;;;;;;31.15;19.50;;;;;;;19.93;33.00;103148.31;5091065;28;20032;-69
2022/03/23 09:35:54;;;;;;;29.75;19.33;;;;;;;20.76;31.45;103150.56;5081705;28;20024;-69
2022/03/23 09:38:20;;;;;;;28.40;19.25;;;;;;;20.99;30.08;103143.13;5069098;28;20032;-69
2022/03/23 09:40:47;;;;;;;33.13;19.67;;;;;;;21.33;28.92;103147.59;5061280;28;20115;-69
2022/03/23 09:43:12;;;;;;;26.90;18.58;;;;;;;21.66;29.52;103146.69;5072476;28;20051;-69
2022/03/23 09:48:11;;;;;;;34.47;20.38;;;;;;;21.60;28.04;103147.06;5092287;28;20025;-69
2022/03/23 09:50:39;;;;;;;27.25;19.50;;;;;;;21.86;27.94;103147.44;5092986;28;20063;-69
2022/03/23 09:53:06;;;;;;;31.08;20.02;;;;;;;22.20;27.17;103140.09;5093025;28;20088;-68
2022/03/23 09:55:31;;;;;;;26.15;20.15;;;;;;;22.65;27.04;103143.78;5072295;28;20032;-68
2022/03/23 09:57:59;;;;;;;32.45;20.42;;;;;;;23.12;25.49;103139.16;5088040;28;20084;-68
2022/03/23 10:00:29;;;;;;;26.83;19.63;;;;;;;23.26;24.65;103146.41;5081009;28;20049;-68
2022/03/23 10:02:57;;;;;;;28.67;20.88;;;;;;;23.42;24.63;103142.75;5072452;28;20454;-68
2022/03/23 10:05:42;;;;;;;30.20;20.92;;;;;;;22.85;26.31;103148.00;5079818;28;20368;-68
2022/03/23 10:08:28;;;;;;;32.15;21.83;;;;;;;22.88;26.55;103144.22;5091552;28;20036;-68
2022/03/23 10:11:29;;;;;;;29.48;21.08;;;;;;;23.15;26.41;103151.63;5073342;28;20488;-68
2022/03/23 10:14:19;;;;;;;27.70;20.65;;;;;;;23.73;25.87;103147.94;5073277;28;20030;-68
2022/03/23 10:17:22;;;;;;;26.95;20.02;;;;;;;24.17;24.79;103154.16;5066470;28;20032;-68
2022/03/23 10:19:47;;;;;;;35.22;21.80;;;;;;;23.74;26.08;103151.50;5085157;28;20039;-67
2022/03/23 10:22:14;;;;;;;34.97;22.10;;;;;;;23.76;25.98;103156.81;5073800;28;20395;-67
2022/03/23 10:24:40;;;;;;;28.85;20.95;;;;;;;23.51;24.78;103148.44;5091832;28;20058;-67
2022/03/23 10:27:12;;;;;;;33.20;22.60;;;;;;;24.05;25.03;103152.25;5074065;28;20495;-67
2022/03/23 10:30:00;;;;;;;28.30;21.90;;;;;;;24.44;22.55;103153.25;5090453;28;20025;-67
2022/03/23 10:32:34;;;;;;;28.10;21.55;;;;;;;24.70;22.33;103148.78;5063308;28;20083;-67
2022/03/23 10:34:59;;;;;;;30.70;21.98;;;;;;;24.44;24.17;103139.72;5073279;28;20074;-66
2022/03/23 10:37:30;;;;;;;29.67;21.52;;;;;;;24.43;24.13;103148.81;5091872;28;20424;-67
2022/03/23 10:39:57;;;;;;;;;;;;;;;24.51;23.99;103145.59;5073159;28;20024;-67
2022/03/23 10:42:27;;;;;;;31.50;22.80;;;;;;;24.82;24.19;103141.69;5074075;28;19955;-67
2022/03/23 10:45:10;;;;;;;29.92;22.15;;;;;;;24.52;23.19;103140.06;5069711;28;20037;-67
2022/03/23 10:47:38;;;;;;;32.08;22.15;;;;;;;24.59;23.25;103150.47;5071737;28;20411;-68
2022/03/23 10:50:12;;;;;;;31.10;22.13;;;;;;;24.68;24.67;103139.91;5072906;28;20028;-67
2022/03/23 10:53:12;;;;;;;28.20;21.27;;;;;;;25.07;22.87;103139.09;5077235;28;20035;-67
2022/03/23 10:55:46;;;;;;;31.73;23.40;;;;;;;24.78;24.41;103139.28;4981378;28;20613;-68
2022/03/23 10:58:24;;;;;;;37.33;23.02;;;;;;;24.40;24.33;103140.91;5067146;28;20044;-67
2022/03/23 11:00:49;;;;;;;36.72;23.60;;;;;;;24.73;23.73;103138.72;5075690;28;20023;-68
2022/03/23 11:03:15;;;;;;;35.60;23.83;;;;;;;24.57;24.40;103142.47;5090013;28;20024;-67
2022/03/23 11:05:46;;;;;;;28.75;21.83;;;;;;;24.82;24.03;103133.56;5072930;28;20032;-67
2022/03/23 11:08:18;;;;;;;30.20;21.80;;;;;;;25.24;22.62;103138.75;5055326;28;20024;-67
2022/03/23 11:16:27;;;;;;;30.75;23.27;;;;;;;25.14;24.09;103141.25;5078023;28;20085;-67
2022/03/23 11:18:57;;;;;;;34.10;22.50;;;;;;;25.66;23.23;103133.94;5085902;28;20020;-69
2022/03/23 11:21:23;;;;;;;30.73;21.83;;;;;;;26.17;22.89;103145.63;5071817;28;20048;-67
2022/03/23 11:23:48;;;;;;;29.63;23.15;;;;;;;25.91;22.65;103139.38;5077571;28;20031;-68
2022/03/23 11:26:14;;;;;;;35.65;23.38;;;;;;;25.60;23.12;103141.66;5057801;28;20032;-67
2022/03/23 11:28:45;;;;;;;42.55;23.42;;;;;;;26.09;22.49;103129.03;5082803;28;20028;-67
2022/03/23 11:31:13;;;;;;;32.03;23.23;;;;;;;26.04;23.47;103132.06;5078048;28;20522;-67
2022/03/23 11:33:41;;;;;;;31.45;23.50;;;;;;;25.98;22.18;103129.81;5077351;28;20031;-66